createdAt,value
2022-11-29T00:01:16.350Z,2.80
2022-11-29T00:03:44.691Z,3.30
2022-11-29T00:06:14.850Z,3.00
2022-11-29T00:08:43.653Z,3.07
2022-11-29T00:11:13.660Z,3.17
2022-11-29T00:13:41.771Z,3.20
2022-11-29T00:16:12.157Z,2.50
2022-11-29T00:18:41.520Z,3.27
2022-11-29T00:21:10.355Z,2.80
2022-11-29T00:23:38.348Z,3.20
2022-11-29T00:26:07.009Z,2.73
2022-11-29T00:28:36.002Z,2.80
2022-11-29T00:31:14.984Z,2.80
2022-11-29T00:33:44.297Z,3.07
2022-11-29T00:36:12.978Z,2.80
2022-11-29T00:38:41.527Z,2.57
2022-11-29T00:41:10.356Z,2.23
2022-11-29T00:43:38.376Z,2.87
2022-11-29T00:46:06.943Z,2.60
2022-11-29T00:48:35.262Z,2.83
2022-11-29T00:51:05.870Z,2.80
2022-11-29T00:53:34.265Z,2.77
2022-11-29T00:56:02.745Z,2.90
2022-11-29T00:58:31.229Z,3.07
2022-11-29T01:00:59.293Z,2.60
2022-11-29T01:03:27.244Z,2.33
2022-11-29T01:06:02.130Z,3.50
2022-11-29T01:08:31.490Z,2.70
2022-11-29T01:11:04.159Z,2.63
2022-11-29T01:13:32.105Z,3.27
2022-11-29T01:16:00.399Z,3.27
2022-11-29T01:18:28.370Z,3.10
2022-11-29T01:21:00.592Z,2.50
2022-11-29T01:23:29.231Z,3.30
2022-11-29T01:26:00.047Z,3.07
2022-11-29T01:28:28.652Z,3.30
2022-11-29T01:30:56.816Z,2.50
2022-11-29T01:33:25.084Z,3.00
2022-11-29T01:35:55.017Z,3.43
2022-11-29T01:38:23.891Z,3.67
2022-11-29T01:41:01.201Z,3.63
2022-11-29T01:43:29.906Z,3.03
2022-11-29T01:45:58.280Z,3.37
2022-11-29T01:48:30.249Z,3.53
2022-11-29T01:51:01.009Z,3.37
2022-11-29T01:53:29.611Z,4.60
2022-11-29T01:56:03.606Z,3.37
2022-11-29T01:58:31.687Z,3.33
2022-11-29T02:01:01.638Z,3.90
2022-11-29T02:03:29.617Z,3.50
2022-11-29T02:05:57.615Z,4.07
2022-11-29T02:08:30.768Z,3.10
2022-11-29T02:11:31.809Z,3.17
2022-11-29T02:14:23.169Z,4.30
2022-11-29T02:16:59.042Z,3.57
2022-11-29T02:19:49.235Z,3.30
2022-11-29T02:22:21.947Z,3.30
2022-11-29T02:25:11.757Z,3.67
2022-11-29T02:28:09.392Z,5.57
2022-11-29T02:31:07.532Z,3.90
2022-11-29T02:34:04.324Z,3.13
2022-11-29T02:36:44.831Z,4.00
2022-11-29T02:39:45.130Z,3.80
2022-11-29T02:42:54.106Z,3.80
2022-11-29T02:45:42.754Z,3.47
2022-11-29T02:48:27.793Z,4.87
2022-11-29T02:51:05.622Z,3.93
2022-11-29T02:53:38.202Z,3.60
2022-11-29T02:56:13.178Z,4.20
2022-11-29T02:58:51.215Z,3.97
2022-11-29T03:01:25.446Z,4.80
2022-11-29T03:04:01.320Z,3.60
2022-11-29T03:06:39.604Z,3.30
2022-11-29T03:09:13.107Z,2.97
2022-11-29T03:11:48.910Z,3.00
2022-11-29T03:14:25.163Z,3.47
2022-11-29T03:17:01.855Z,3.13
2022-11-29T03:19:54.112Z,3.70
2022-11-29T03:22:31.919Z,2.60
2022-11-29T03:25:08.251Z,3.23
2022-11-29T03:27:42.910Z,3.80
2022-11-29T03:30:13.440Z,3.20
2022-11-29T03:32:48.803Z,2.90
2022-11-29T03:35:21.968Z,3.00
2022-11-29T03:37:58.153Z,2.60
2022-11-29T03:40:32.378Z,2.40
2022-11-29T03:43:06.312Z,2.73
2022-11-29T03:45:39.747Z,2.60
2022-11-29T03:48:11.256Z,2.33
2022-11-29T03:50:42.824Z,2.30
2022-11-29T03:53:18.827Z,2.83
2022-11-29T03:55:53.397Z,2.60
2022-11-29T03:58:47.453Z,2.67
2022-11-29T04:02:02.638Z,2.30
2022-11-29T04:05:09.126Z,2.30
2022-11-29T04:08:01.847Z,2.37
2022-11-29T04:11:04.017Z,2.30
2022-11-29T04:14:09.919Z,2.20
2022-11-29T04:17:05.008Z,3.00
2022-11-29T04:20:04.496Z,2.40
2022-11-29T04:22:55.348Z,2.33
2022-11-29T04:25:49.153Z,2.60
2022-11-29T04:28:47.768Z,2.47
2022-11-29T04:31:24.062Z,2.13
2022-11-29T04:34:12.644Z,2.20
2022-11-29T04:36:58.195Z,2.50
2022-11-29T04:40:02.649Z,2.07
2022-11-29T04:42:44.720Z,2.20
2022-11-29T04:45:46.472Z,2.00
2022-11-29T04:48:40.019Z,1.70
2022-11-29T04:51:20.624Z,2.00
2022-11-29T04:53:54.355Z,1.87
2022-11-29T04:56:32.047Z,1.70
2022-11-29T04:59:05.686Z,1.80
2022-11-29T05:01:44.572Z,1.60
2022-11-29T05:04:20.178Z,1.73
2022-11-29T05:06:59.341Z,2.00
2022-11-29T05:09:38.036Z,2.20
2022-11-29T05:12:15.381Z,2.40
2022-11-29T05:15:01.915Z,2.07
2022-11-29T05:17:40.692Z,2.40
2022-11-29T05:20:24.062Z,1.90
2022-11-29T05:23:03.765Z,1.93
2022-11-29T05:25:38.663Z,1.70
2022-11-29T05:28:13.731Z,1.83
2022-11-29T05:31:05.114Z,1.97
2022-11-29T05:33:54.417Z,1.83
2022-11-29T05:36:34.093Z,1.43
2022-11-29T05:39:17.231Z,1.93
2022-11-29T05:42:00.562Z,1.70
2022-11-29T05:44:34.972Z,1.60
2022-11-29T05:47:05.200Z,1.53
2022-11-29T05:49:42.198Z,1.77
2022-11-29T05:52:24.548Z,1.93
2022-11-29T05:55:07.127Z,21.33
2022-11-29T05:57:43.577Z,4.00
2022-11-29T06:00:14.530Z,6.87
2022-11-29T06:02:52.433Z,3.40
2022-11-29T06:05:29.861Z,3.40
2022-11-29T06:08:03.324Z,1.67
2022-11-29T06:10:34.912Z,2.53
2022-11-29T06:13:14.924Z,3.23
2022-11-29T06:16:08.870Z,2.47
2022-11-29T06:18:59.802Z,2.30
2022-11-29T06:21:38.419Z,2.03
2022-11-29T06:24:32.329Z,2.63
2022-11-29T06:27:22.872Z,2.50
2022-11-29T06:29:56.191Z,2.60
2022-11-29T06:32:36.833Z,2.83
2022-11-29T06:35:08.703Z,4.90
2022-11-29T06:37:41.425Z,3.80
2022-11-29T06:40:12.631Z,3.50
2022-11-29T06:42:40.574Z,2.60
2022-11-29T06:45:11.545Z,2.90
2022-11-29T06:47:44.709Z,3.00
2022-11-29T06:50:33.848Z,2.33
2022-11-29T06:53:13.922Z,2.60
2022-11-29T06:55:52.037Z,2.37
2022-11-29T06:58:36.181Z,2.17
2022-11-29T07:01:11.799Z,2.10
2022-11-29T07:04:03.270Z,2.40
2022-11-29T07:06:32.832Z,2.30
2022-11-29T07:09:06.829Z,2.20
2022-11-29T07:11:35.279Z,2.43
2022-11-29T07:14:03.772Z,5.00
2022-11-29T07:16:36.073Z,2.57
2022-11-29T07:19:13.807Z,2.73
2022-11-29T07:21:52.268Z,2.40
2022-11-29T07:24:33.327Z,2.23
2022-11-29T07:27:08.495Z,2.40
2022-11-29T07:29:43.472Z,2.00
2022-11-29T07:32:21.687Z,2.50
2022-11-29T07:34:58.769Z,2.43
2022-11-29T07:37:34.765Z,2.50
2022-11-29T07:40:10.491Z,3.00
2022-11-29T07:42:49.718Z,2.40
2022-11-29T07:45:24.941Z,2.53
2022-11-29T07:47:52.841Z,4.07
2022-11-29T07:50:21.841Z,2.70
2022-11-29T07:52:50.250Z,2.30
2022-11-29T07:55:22.012Z,2.17
2022-11-29T07:57:50.615Z,1.97
2022-11-29T08:00:20.276Z,2.20
2022-11-29T08:02:48.991Z,3.00
2022-11-29T08:05:17.681Z,2.40
2022-11-29T08:07:46.435Z,3.50
2022-11-29T08:10:16.117Z,2.60
2022-11-29T08:12:47.379Z,2.10
2022-11-29T08:15:15.512Z,2.83
2022-11-29T08:17:43.722Z,2.80
2022-11-29T08:20:13.226Z,4.13
2022-11-29T08:22:41.211Z,2.20
2022-11-29T08:25:10.037Z,2.17
2022-11-29T08:27:39.044Z,2.50
2022-11-29T08:30:09.759Z,2.07
2022-11-29T08:32:37.690Z,2.10
2022-11-29T08:35:06.010Z,2.10
2022-11-29T08:37:33.940Z,2.50
2022-11-29T08:40:01.872Z,2.13
2022-11-29T08:42:29.740Z,2.40
2022-11-29T08:44:57.795Z,2.30
2022-11-29T08:47:40.128Z,1.93
2022-11-29T08:50:12.228Z,2.73
2022-11-29T08:52:59.703Z,2.17
2022-11-29T08:55:29.500Z,2.20
2022-11-29T08:58:03.913Z,2.13
2022-11-29T09:00:32.364Z,2.07
2022-11-29T09:03:16.794Z,1.87
2022-11-29T09:05:44.902Z,2.00
2022-11-29T09:08:12.817Z,2.50
2022-11-29T09:10:41.597Z,2.57
2022-11-29T09:13:10.093Z,2.00
2022-11-29T09:15:38.392Z,2.30
2022-11-29T09:18:07.843Z,2.53
2022-11-29T09:20:35.944Z,2.30
2022-11-29T09:23:04.255Z,2.43
2022-11-29T09:25:32.296Z,2.80
2022-11-29T09:28:01.846Z,2.80
2022-11-29T09:30:31.406Z,2.37
2022-11-29T09:33:02.592Z,2.30
2022-11-29T09:35:32.194Z,2.20
2022-11-29T09:38:00.201Z,2.20
2022-11-29T09:40:33.861Z,2.00
2022-11-29T09:43:07.361Z,2.00
2022-11-29T09:45:42.408Z,2.70
2022-11-29T09:48:38.112Z,2.30
2022-11-29T09:51:19.019Z,2.30
2022-11-29T09:54:04.140Z,2.63
2022-11-29T09:56:37.751Z,2.60
2022-11-29T09:59:10.754Z,1.90
2022-11-29T10:01:41.723Z,2.30
2022-11-29T10:04:14.933Z,2.60
2022-11-29T10:06:51.433Z,2.17
2022-11-29T10:09:24.059Z,2.20
2022-11-29T10:12:02.256Z,2.00
2022-11-29T10:14:35.801Z,2.70
2022-11-29T10:17:12.895Z,2.33
2022-11-29T10:19:44.166Z,2.20
2022-11-29T10:22:18.818Z,2.10
2022-11-29T10:24:50.886Z,2.57
2022-11-29T10:27:23.087Z,2.77
2022-11-29T10:29:51.439Z,2.40
2022-11-29T10:32:21.400Z,2.83
2022-11-29T10:34:50.234Z,2.57
2022-11-29T10:37:21.920Z,2.63
2022-11-29T10:39:52.972Z,2.00
2022-11-29T10:42:40.905Z,2.30
2022-11-29T10:45:16.013Z,2.30
2022-11-29T10:47:47.029Z,2.07
2022-11-29T10:50:18.447Z,1.90
2022-11-29T10:52:47.810Z,2.03
2022-11-29T10:55:18.396Z,2.10
2022-11-29T10:58:08.636Z,2.07
2022-11-29T11:00:55.290Z,2.03
2022-11-29T11:03:33.526Z,2.17
2022-11-29T11:06:05.328Z,2.07
2022-11-29T11:08:36.071Z,1.90
2022-11-29T11:11:07.640Z,1.83
2022-11-29T11:13:36.996Z,1.80
2022-11-29T11:16:21.127Z,1.70
2022-11-29T11:18:49.467Z,2.00
2022-11-29T11:21:20.196Z,1.87
2022-11-29T11:23:56.341Z,2.10
2022-11-29T11:26:25.503Z,2.03
2022-11-29T11:29:00.054Z,1.80
2022-11-29T11:31:32.515Z,1.80
2022-11-29T11:34:25.188Z,2.57
2022-11-29T11:36:53.600Z,1.93
2022-11-29T11:39:24.222Z,2.30
2022-11-29T11:42:10.501Z,2.40
2022-11-29T11:44:48.686Z,1.97
2022-11-29T11:47:20.340Z,1.70
2022-11-29T11:49:50.989Z,2.17
2022-11-29T11:52:23.004Z,1.90
2022-11-29T11:54:55.692Z,1.93
2022-11-29T11:57:24.810Z,1.73
2022-11-29T11:59:54.621Z,2.23
2022-11-29T12:02:27.873Z,1.80
2022-11-29T12:04:58.267Z,2.20
2022-11-29T12:07:59.766Z,1.80
2022-11-29T12:10:25.326Z,2.17
2022-11-29T12:12:54.576Z,2.47
2022-11-29T12:15:27.212Z,1.90
2022-11-29T12:18:02.138Z,1.70
2022-11-29T12:20:34.992Z,1.40
2022-11-29T12:23:27.968Z,2.10
2022-11-29T12:26:01.450Z,2.00
2022-11-29T12:28:31.481Z,1.87
2022-11-29T12:31:08.839Z,1.93
2022-11-29T12:33:44.940Z,1.47
2022-11-29T12:36:25.635Z,1.90
2022-11-29T12:39:03.204Z,2.03
2022-11-29T12:41:49.594Z,1.40
2022-11-29T12:44:30.770Z,1.30
2022-11-29T12:47:34.505Z,1.40
2022-11-29T12:50:21.768Z,1.40
2022-11-29T12:53:03.287Z,1.50
2022-11-29T12:55:35.925Z,1.20
2022-11-29T12:58:14.627Z,1.47
2022-11-29T13:00:51.680Z,1.67
2022-11-29T13:03:28.015Z,1.60
2022-11-29T13:06:04.033Z,1.80
2022-11-29T13:08:55.729Z,1.50
2022-11-29T13:11:28.538Z,1.73
2022-11-29T13:14:20.275Z,1.27
2022-11-29T13:16:57.797Z,1.10
2022-11-29T13:19:34.503Z,1.70
2022-11-29T13:22:07.389Z,1.13
2022-11-29T13:24:43.281Z,1.40
2022-11-29T13:27:17.133Z,1.20
2022-11-29T13:29:47.175Z,1.90
2022-11-29T13:32:29.300Z,1.33
2022-11-29T13:35:02.844Z,1.70
2022-11-29T13:37:36.505Z,1.50
2022-11-29T13:40:19.477Z,1.73
2022-11-29T13:42:55.152Z,1.43
2022-11-29T13:45:29.754Z,2.03
2022-11-29T13:48:00.401Z,1.80
2022-11-29T13:50:42.373Z,1.80
2022-11-29T13:53:16.111Z,1.57
2022-11-29T13:55:49.541Z,2.17
2022-11-29T13:58:37.752Z,1.33
2022-11-29T14:01:10.287Z,2.03
2022-11-29T14:03:42.850Z,1.47
2022-11-29T14:06:15.129Z,1.70
2022-11-29T14:09:19.974Z,2.10
2022-11-29T14:11:51.431Z,1.63
2022-11-29T14:14:25.792Z,1.70
2022-11-29T14:16:59.064Z,1.70
2022-11-29T14:19:33.501Z,2.10
2022-11-29T14:22:30.255Z,2.00
2022-11-29T14:25:49.780Z,4.80
2022-11-29T14:28:32.637Z,2.97
2022-11-29T14:31:01.519Z,2.00
2022-11-29T14:33:59.773Z,2.60
2022-11-29T14:36:40.757Z,2.33
2022-11-29T14:39:27.279Z,5.73
2022-11-29T14:42:04.764Z,2.80
2022-11-29T14:44:34.354Z,1.47
2022-11-29T14:47:05.072Z,1.87
2022-11-29T14:49:41.472Z,1.70
2022-11-29T14:52:17.475Z,1.50
2022-11-29T14:55:01.647Z,1.23
2022-11-29T14:58:09.704Z,1.47
2022-11-29T15:00:51.959Z,1.30
2022-11-29T15:03:22.544Z,1.90
2022-11-29T15:05:57.886Z,1.63
2022-11-29T15:08:34.716Z,2.03
2022-11-29T15:11:05.619Z,2.40
2022-11-29T15:13:35.915Z,2.00
2022-11-29T15:16:20.928Z,2.10
2022-11-29T15:19:13.146Z,2.37
2022-11-29T15:21:50.634Z,3.67
2022-11-29T15:24:19.820Z,3.53
2022-11-29T15:26:57.486Z,3.30
2022-11-29T15:29:26.657Z,3.43
2022-11-29T15:31:56.686Z,3.90
2022-11-29T15:34:31.819Z,4.63
2022-11-29T15:37:02.073Z,4.10
2022-11-29T15:39:32.088Z,4.40
2022-11-29T15:42:04.776Z,4.00
2022-11-29T15:44:35.673Z,3.50
2022-11-29T15:47:17.657Z,4.33
2022-11-29T15:49:45.667Z,4.60
2022-11-29T15:52:20.624Z,4.00
2022-11-29T15:54:52.145Z,4.40
2022-11-29T15:57:25.200Z,4.40
2022-11-29T15:59:56.324Z,5.20
2022-11-29T16:02:26.696Z,4.97
2022-11-29T16:04:58.667Z,4.10
2022-11-29T16:07:32.213Z,6.07
2022-11-29T16:10:03.868Z,6.03
2022-11-29T16:12:32.098Z,5.67
2022-11-29T16:15:02.105Z,6.10
2022-11-29T16:17:32.285Z,6.23
2022-11-29T16:20:24.536Z,6.50
2022-11-29T16:23:12.377Z,6.83
2022-11-29T16:25:59.543Z,6.83
2022-11-29T16:28:32.432Z,7.47
2022-11-29T16:31:00.728Z,7.53
2022-11-29T16:33:28.687Z,7.40
2022-11-29T16:36:05.983Z,7.50
2022-11-29T16:38:35.447Z,7.53
2022-11-29T16:41:06.980Z,7.67
2022-11-29T16:43:50.740Z,7.40
2022-11-29T16:46:31.049Z,8.67
2022-11-29T16:49:02.478Z,8.07
2022-11-29T16:51:37.672Z,8.57
2022-11-29T16:54:25.092Z,8.23
2022-11-29T16:56:54.154Z,8.43
2022-11-29T16:59:27.838Z,8.80
2022-11-29T17:01:56.295Z,7.90
2022-11-29T17:04:25.124Z,9.10
2022-11-29T17:06:54.485Z,9.80
2022-11-29T17:09:26.185Z,8.77
2022-11-29T17:11:54.590Z,9.53
2022-11-29T17:14:22.652Z,8.40
2022-11-29T17:16:51.779Z,8.80
2022-11-29T17:19:22.061Z,10.23
2022-11-29T17:21:50.277Z,9.97
2022-11-29T17:24:19.975Z,10.00
2022-11-29T17:26:50.043Z,9.83
2022-11-29T17:29:19.034Z,9.53
2022-11-29T17:31:50.317Z,10.00
2022-11-29T17:34:18.526Z,9.20
2022-11-29T17:36:46.479Z,9.00
2022-11-29T17:39:15.660Z,11.33
2022-11-29T17:41:43.675Z,11.23
2022-11-29T17:44:13.200Z,10.60
2022-11-29T17:46:41.583Z,13.80
2022-11-29T17:49:10.867Z,14.80
2022-11-29T17:51:51.785Z,14.13
2022-11-29T17:54:20.832Z,14.20
2022-11-29T17:56:49.221Z,16.13
2022-11-29T17:59:18.770Z,19.17
2022-11-29T18:01:47.969Z,19.00
2022-11-29T18:04:16.048Z,20.67
2022-11-29T18:06:49.306Z,20.77
2022-11-29T18:09:18.096Z,22.23
2022-11-29T18:11:49.445Z,21.37
2022-11-29T18:14:21.008Z,21.30
2022-11-29T18:16:49.539Z,21.73
2022-11-29T18:19:19.766Z,18.77
2022-11-29T18:21:48.873Z,20.20
2022-11-29T18:24:16.841Z,23.57
2022-11-29T18:26:45.239Z,20.17
2022-11-29T18:29:13.206Z,22.40
2022-11-29T18:31:44.620Z,24.43
2022-11-29T18:34:14.554Z,22.50
2022-11-29T18:36:44.418Z,23.90
2022-11-29T18:39:14.986Z,21.50
2022-11-29T18:41:45.051Z,20.70
2022-11-29T18:44:14.543Z,22.53
2022-11-29T18:46:44.742Z,20.33
2022-11-29T18:49:14.217Z,20.97
2022-11-29T18:51:44.518Z,20.93
2022-11-29T18:54:13.297Z,21.37
2022-11-29T18:56:41.672Z,21.13
2022-11-29T18:59:11.400Z,21.77
2022-11-29T19:01:42.373Z,21.47
2022-11-29T19:04:13.714Z,21.87
2022-11-29T19:06:42.882Z,22.60
2022-11-29T19:09:13.985Z,23.93
2022-11-29T19:11:42.492Z,23.47
2022-11-29T19:14:12.671Z,23.83
2022-11-29T19:16:42.605Z,25.00
2022-11-29T19:19:12.655Z,23.67
2022-11-29T19:21:41.050Z,24.43
2022-11-29T19:24:14.859Z,24.60
2022-11-29T19:26:44.799Z,25.27
2022-11-29T19:29:13.477Z,25.50
2022-11-29T19:31:42.279Z,23.73
2022-11-29T19:34:11.931Z,26.27
2022-11-29T19:36:43.379Z,24.80
2022-11-29T19:39:13.091Z,23.90
2022-11-29T19:41:42.604Z,24.57
2022-11-29T19:44:10.617Z,24.87
2022-11-29T19:46:40.972Z,25.00
2022-11-29T19:49:11.415Z,23.20
2022-11-29T19:51:39.694Z,22.63
2022-11-29T19:54:09.985Z,22.37
2022-11-29T19:56:38.813Z,24.83
2022-11-29T19:59:07.873Z,23.47
2022-11-29T20:01:43.633Z,22.07
2022-11-29T20:04:16.490Z,22.83
2022-11-29T20:06:45.375Z,22.93
2022-11-29T20:09:14.573Z,21.77
2022-11-29T20:11:42.644Z,24.10
2022-11-29T20:14:12.680Z,24.00
2022-11-29T20:16:40.595Z,21.97
2022-11-29T20:19:14.238Z,22.63
2022-11-29T20:21:44.403Z,20.90
2022-11-29T20:24:14.296Z,22.87
2022-11-29T20:26:44.274Z,23.57
2022-11-29T20:29:13.228Z,21.10
2022-11-29T20:31:49.029Z,22.43
2022-11-29T20:34:20.863Z,21.60
2022-11-29T20:37:11.989Z,22.40
2022-11-29T20:39:46.469Z,22.90
2022-11-29T20:42:37.500Z,23.03
2022-11-29T20:45:07.800Z,22.83
2022-11-29T20:47:45.178Z,23.07
2022-11-29T20:50:23.123Z,22.70
2022-11-29T20:52:59.347Z,22.00
2022-11-29T20:55:27.270Z,22.23
2022-11-29T20:57:55.168Z,21.80
2022-11-29T21:00:23.442Z,23.03
2022-11-29T21:02:51.370Z,20.50
2022-11-29T21:05:20.836Z,22.97
2022-11-29T21:07:48.886Z,23.57
2022-11-29T21:10:17.109Z,21.43
2022-11-29T21:12:46.547Z,23.37
2022-11-29T21:15:15.417Z,24.63
2022-11-29T21:17:44.287Z,24.70
2022-11-29T21:20:18.709Z,21.90
2022-11-29T21:22:53.720Z,21.73
2022-11-29T21:25:29.977Z,23.60
2022-11-29T21:27:58.790Z,23.07
2022-11-29T21:30:27.007Z,25.33
2022-11-29T21:32:55.679Z,24.80
2022-11-29T21:35:23.568Z,25.33
2022-11-29T21:37:55.466Z,25.00
2022-11-29T21:40:24.419Z,24.37
2022-11-29T21:42:52.388Z,24.97
2022-11-29T21:45:20.408Z,21.53
2022-11-29T21:47:48.520Z,22.10
2022-11-29T21:50:16.664Z,22.93
2022-11-29T21:52:44.902Z,22.60
2022-11-29T21:55:14.200Z,21.57
2022-11-29T21:57:42.147Z,19.50
2022-11-29T22:00:11.033Z,18.73
2022-11-29T22:02:40.477Z,18.90
2022-11-29T22:05:09.589Z,17.50
2022-11-29T22:07:37.599Z,17.50
2022-11-29T22:10:12.955Z,18.20
2022-11-29T22:12:49.457Z,16.63
2022-11-29T22:15:24.564Z,16.93
2022-11-29T22:17:52.801Z,17.90
2022-11-29T22:20:20.760Z,20.80
2022-11-29T22:22:49.010Z,20.90
2022-11-29T22:25:17.300Z,20.30
2022-11-29T22:27:46.553Z,20.10
2022-11-29T22:30:14.724Z,21.43
2022-11-29T22:32:42.573Z,20.60
2022-11-29T22:35:10.717Z,19.20
2022-11-29T22:37:38.668Z,18.07
2022-11-29T22:40:08.192Z,17.17
2022-11-29T22:42:36.075Z,17.10
2022-11-29T22:45:05.881Z,17.70
2022-11-29T22:47:33.743Z,18.80
2022-11-29T22:50:01.718Z,18.70
2022-11-29T22:52:29.658Z,19.33
2022-11-29T22:55:02.884Z,17.50
2022-11-29T22:57:32.535Z,18.70
2022-11-29T23:00:00.390Z,18.33
2022-11-29T23:02:29.722Z,16.67
2022-11-29T23:04:58.009Z,17.03
2022-11-29T23:07:25.920Z,17.10
2022-11-29T23:09:55.661Z,16.77
2022-11-29T23:12:23.631Z,16.70
2022-11-29T23:14:55.964Z,18.30
2022-11-29T23:17:24.667Z,17.87
2022-11-29T23:19:53.882Z,18.67
2022-11-29T23:22:21.772Z,17.97
2022-11-29T23:24:49.682Z,18.40
2022-11-29T23:27:17.571Z,18.43
2022-11-29T23:29:45.505Z,19.37
2022-11-29T23:32:13.397Z,19.63
2022-11-29T23:34:41.270Z,19.60
2022-11-29T23:37:10.531Z,16.43
2022-11-29T23:39:38.467Z,18.73
2022-11-29T23:42:06.628Z,19.23
2022-11-29T23:44:34.535Z,19.47
2022-11-29T23:47:02.470Z,18.97
2022-11-29T23:49:30.394Z,18.73
2022-11-29T23:51:58.299Z,16.93
2022-11-29T23:54:27.611Z,17.80
2022-11-29T23:56:55.501Z,17.10
2022-11-29T23:59:23.412Z,18.57
